Time;durP1;ratioP1;P1;durP2;ratioP2;P2;SDS_P1;SDS_P2;PMS_P1;PMS_P2;Temp;Humidity;BMP_temperature;BMP_pressure;BME280_temperature;BME280_humidity;BME280_pressure;Samples;Min_cycle;Max_cycle;Signal;HPM_P1;HPM_P2
2020/12/02 00:00:32;;;;;;;;;;;;;;;2.57;72.69;100412.53;1862594;77;21007;-36
2020/12/02 00:03:23;;;;;;;12.35;9.13;;;;;;;2.53;72.90;100416.84;1859816;77;21195;-36
2020/12/02 00:05:53;;;;;;;13.68;9.80;;;;;;;2.46;73.14;100416.39;1859719;77;21035;-36
2020/12/02 00:08:43;;;;;;;14.98;10.25;;;;;;;2.55;72.90;100421.40;1859849;77;21015;-36
2020/12/02 00:11:15;;;;;;;13.08;9.70;;;;;;;2.53;72.94;100426.75;1859760;77;20967;-36
2020/12/02 00:13:48;;;;;;;13.98;9.93;;;;;;;2.47;73.13;100423.87;1859898;77;21514;-35
2020/12/02 00:16:23;;;;;;;15.75;10.28;;;;;;;2.44;73.13;100425.76;1859845;77;21192;-36
2020/12/02 00:18:52;;;;;;;13.38;9.60;;;;;;;2.36;73.25;100421.02;1859665;77;20999;-36
2020/12/02 00:21:24;;;;;;;14.00;9.97;;;;;;;2.30;73.49;100420.25;1859934;77;21148;-36
2020/12/02 00:23:53;;;;;;;14.33;10.55;;;;;;;2.34;73.47;100421.81;1853876;77;21126;-35
2020/12/02 00:26:22;;;;;;;14.40;10.90;;;;;;;2.38;73.50;100422.85;1860056;77;21588;-36
2020/12/02 00:28:51;;;;;;;17.02;11.95;;;;;;;2.41;73.43;100423.66;1859655;77;21273;-36
2020/12/02 00:31:20;;;;;;;15.75;11.73;;;;;;;2.39;73.42;100425.26;1860015;77;21139;-36
2020/12/02 00:33:48;;;;;;;14.60;10.43;;;;;;;2.39;73.45;100429.81;1859829;77;21106;-36
2020/12/02 00:36:17;;;;;;;14.40;10.53;;;;;;;2.42;73.38;100428.70;1833401;77;21169;-36
2020/12/02 00:38:45;;;;;;;16.35;11.85;;;;;;;2.50;73.28;100431.34;1826178;78;21169;-36
2020/12/02 00:41:14;;;;;;;19.10;12.03;;;;;;;2.56;73.16;100428.36;1826095;78;21199;-36
2020/12/02 00:43:42;;;;;;;17.80;12.28;;;;;;;2.58;73.07;100432.88;1825046;78;21157;-36
2020/12/02 00:46:10;;;;;;;18.73;12.78;;;;;;;2.55;73.10;100428.62;1823991;78;21102;-36
2020/12/02 00:48:39;;;;;;;16.97;12.07;;;;;;;2.54;73.10;100429.70;1771159;78;21126;-36
2020/12/02 00:51:07;;;;;;;16.02;11.88;;;;;;;2.53;73.00;100430.23;1823864;78;21216;-36
2020/12/02 00:53:36;;;;;;;15.63;11.53;;;;;;;2.52;72.96;100425.95;1797050;78;21177;-36
2020/12/02 00:56:05;;;;;;;16.50;11.80;;;;;;;2.51;72.98;100428.93;1795847;78;21099;-36
2020/12/02 00:58:46;;;;;;;15.75;11.43;;;;;;;2.50;73.06;100424.65;1823529;78;21440;-36
2020/12/02 01:01:19;;;;;;;17.17;12.65;;;;;;;2.47;73.04;100433.25;1823380;78;21130;-36
2020/12/02 01:03:48;;;;;;;17.80;11.57;;;;;;;2.43;73.19;100428.17;1823325;78;21165;-35
2020/12/02 01:06:16;;;;;;;17.50;11.43;;;;;;;2.43;73.10;100426.30;1823396;78;21199;-36
2020/12/02 01:08:46;;;;;;;16.25;11.03;;;;;;;2.45;73.17;100426.02;1823404;78;20975;-36
2020/12/02 01:11:25;;;;;;;15.80;11.33;;;;;;;2.48;73.26;100424.12;1823555;78;21149;-36
2020/12/02 01:14:02;;;;;;;15.70;11.23;;;;;;;2.48;73.25;100417.42;1823571;78;21152;-36
2020/12/02 01:16:40;;;;;;;16.55;11.97;;;;;;;2.48;73.24;100421.44;1823607;78;21569;-36
2020/12/02 01:19:11;;;;;;;16.32;11.90;;;;;;;2.46;73.24;100409.70;1823252;78;21266;-36
2020/12/02 01:22:02;;;;;;;15.43;11.70;;;;;;;2.44;73.20;100407.02;1817665;78;21153;-36
2020/12/02 01:24:37;;;;;;;14.75;11.05;;;;;;;2.48;73.30;100402.70;1823411;78;21141;-36
2020/12/02 01:27:26;;;;;;;16.40;11.60;;;;;;;2.48;73.33;100401.37;1823349;78;21148;-36
2020/12/02 01:29:56;;;;;;;16.57;11.88;;;;;;;2.49;73.36;100403.77;1823821;77;21145;-36
2020/12/02 01:32:31;;;;;;;15.75;11.43;;;;;;;2.49;73.37;100397.62;1823418;78;21186;-36
2020/12/02 01:35:02;;;;;;;13.05;10.05;;;;;;;2.49;73.41;100398.95;1831675;77;21161;-36
2020/12/02 01:37:36;;;;;;;13.72;9.65;;;;;;;2.55;73.11;100402.66;1856982;77;21007;-36
2020/12/02 01:40:20;;;;;;;13.48;9.23;;;;;;;2.60;72.96;100397.27;1857031;77;21102;-36
2020/12/02 01:42:55;;;;;;;13.70;10.13;;;;;;;2.65;72.62;100399.09;1857134;77;21090;-36
2020/12/02 01:45:34;;;;;;;12.40;9.70;;;;;;;2.56;72.62;100386.06;1864922;76;21572;-36
2020/12/02 01:48:46;;;;;;;14.20;9.40;;;;;;;2.55;72.73;100393.30;1860417;76;20994;-36
2020/12/02 01:51:29;;;;;;;13.30;9.40;;;;;;;2.51;72.64;100391.45;1865301;76;21093;-36
2020/12/02 01:54:11;;;;;;;10.15;8.25;;;;;;;2.50;72.66;100392.00;1865348;76;21105;-35
2020/12/02 01:57:00;;;;;;;13.48;9.58;;;;;;;2.52;72.56;100389.81;1865489;76;21122;-36
2020/12/02 01:59:52;;;;;;;13.13;9.48;;;;;;;2.50;72.69;100382.63;1865455;76;21363;-36
2020/12/02 02:02:55;;;;;;;13.43;9.83;;;;;;;2.43;72.86;100385.35;1865331;76;21125;-36
2020/12/02 02:05:31;;;;;;;13.68;9.85;;;;;;;2.33;73.07;100384.89;1865386;76;20991;-35
2020/12/02 02:08:00;;;;;;;11.45;8.83;;;;;;;2.28;73.32;100380.11;1865326;76;21146;-36
2020/12/02 02:10:35;;;;;;;11.80;9.05;;;;;;;2.32;73.37;100385.19;1865455;76;21101;-36
2020/12/02 02:13:34;;;;;;;15.70;9.45;;;;;;;2.44;73.13;100389.09;1865400;76;21188;-36
2020/12/02 02:16:09;;;;;;;11.33;8.73;;;;;;;2.45;73.02;100383.20;1865241;76;21118;-36
2020/12/02 02:18:38;;;;;;;12.80;8.73;;;;;;;2.41;73.02;100385.66;1865436;76;21034;-36
2020/12/02 02:21:14;;;;;;;12.35;9.13;;;;;;;2.42;72.93;100385.11;1836916;76;21146;-36
2020/12/02 02:23:43;;;;;;;12.35;8.50;;;;;;;2.40;72.86;100387.26;1865392;76;21011;-35
2020/12/02 02:26:25;;;;;;;9.43;7.70;;;;;;;2.43;72.85;100381.34;1860215;76;21192;-36
2020/12/02 02:29:14;;;;;;;11.53;8.60;;;;;;;2.50;72.64;100377.81;1852095;76;21165;-36
2020/12/02 02:32:09;;;;;;;11.03;8.58;;;;;;;2.46;72.76;100377.58;1865481;76;21115;-36
2020/12/02 02:34:46;;;;;;;13.22;9.53;;;;;;;2.48;72.85;100379.42;1862252;76;21098;-36
2020/12/02 02:37:15;;;;;;;14.68;9.63;;;;;;;2.48;72.75;100381.30;1831428;78;21129;-36
2020/12/02 02:39:45;;;;;;;;;;;;;;;2.46;72.77;100380.80;1834249;78;21275;-36
2020/12/02 02:42:39;;;;;;;11.93;8.85;;;;;;;2.50;72.87;100379.15;1831477;78;20489;-36
2020/12/02 02:45:19;;;;;;;12.20;8.33;;;;;;;2.45;72.98;100379.99;1827078;78;21129;-36
2020/12/02 02:47:47;;;;;;;11.45;8.70;;;;;;;2.44;73.02;100385.62;1825351;78;21145;-36
2020/12/02 02:50:17;;;;;;;12.80;8.83;;;;;;;2.40;72.99;100385.92;1825385;78;21149;-36
2020/12/02 02:54:26;;;;;;;11.43;8.23;;;;;;;2.34;73.13;100381.69;1804415;78;23035;-36
2020/12/02 02:56:54;;;;;;;11.48;8.68;;;;;;;2.19;73.35;100390.08;1784008;80;21019;-36
2020/12/02 02:59:23;;;;;;;11.95;9.03;;;;;;;2.25;73.34;100390.05;1784158;80;21187;-36
2020/12/02 03:01:51;;;;;;;12.45;10.03;;;;;;;2.25;73.32;100388.17;1784086;80;21044;-36
2020/12/02 03:04:20;;;;;;;13.03;10.08;;;;;;;2.21;73.34;100389.02;1749271;82;20987;-36
2020/12/02 03:06:49;;;;;;;13.78;10.50;;;;;;;2.18;73.47;100384.47;1749298;82;20976;-36
2020/12/02 03:09:17;;;;;;;11.18;8.28;;;;;;;2.19;73.53;100391.42;1749338;82;21299;-36
2020/12/02 03:11:50;;;;;;;11.57;8.55;;;;;;;2.27;73.46;100393.26;1719421;83;21192;-36
2020/12/02 03:14:19;;;;;;;11.38;8.63;;;;;;;2.35;73.23;100392.12;1718204;82;21620;-36
2020/12/02 03:16:54;;;;;;;12.13;9.28;;;;;;;2.36;73.16;100389.70;1719371;83;21023;-36
2020/12/02 03:19:30;;;;;;;11.95;8.75;;;;;;;2.36;73.17;100390.24;1719395;83;21186;-36
2020/12/02 03:22:03;;;;;;;11.63;9.43;;;;;;;2.35;73.08;100388.64;1719341;83;21217;-36
2020/12/02 03:24:31;;;;;;;12.23;9.50;;;;;;;2.31;73.11;100387.06;1749376;81;21207;-36
2020/12/02 03:26:59;;;;;;;12.10;8.90;;;;;;;2.32;73.15;100389.20;1730753;82;21084;-36
2020/12/02 03:29:28;;;;;;;12.80;9.25;;;;;;;2.37;72.87;100389.17;1734479;82;21653;-36
2020/12/02 03:31:56;;;;;;;13.10;9.50;;;;;;;2.41;72.86;100390.20;1734482;82;21060;-36
2020/12/02 03:34:24;;;;;;;15.65;10.13;;;;;;;2.40;72.83;100385.92;1734501;82;21179;-36
2020/12/02 03:36:53;;;;;;;12.95;9.45;;;;;;;2.34;72.84;100381.14;1780191;80;21237;-36
2020/12/02 03:39:21;;;;;;;15.63;10.30;;;;;;;2.28;73.04;100379.58;1747651;82;21142;-36
2020/12/02 03:41:49;;;;;;;12.70;9.40;;;;;;;2.27;73.23;100378.55;1780167;80;21165;-36
2020/12/02 03:44:18;;;;;;;11.68;8.78;;;;;;;2.27;73.22;100378.55;1747607;82;21048;-36
2020/12/02 03:46:46;;;;;;;11.88;8.70;;;;;;;2.31;73.12;100371.02;1780084;80;21159;-36
2020/12/02 03:49:14;;;;;;;11.80;9.00;;;;;;;2.31;73.10;100371.02;1747667;82;21507;-36
2020/12/02 03:51:43;;;;;;;12.58;9.18;;;;;;;2.33;72.99;100370.71;1780118;80;21178;-36
2020/12/02 03:54:11;;;;;;;12.75;9.70;;;;;;;2.30;72.90;100373.95;1747539;82;21063;-36
2020/12/02 03:56:40;;;;;;;12.58;9.18;;;;;;;2.26;72.83;100378.27;1816485;79;21166;-36
2020/12/02 03:59:08;;;;;;;11.80;8.00;;;;;;;2.25;72.81;100376.13;1816222;79;21178;-36
2020/12/02 04:01:37;;;;;;;12.53;9.20;;;;;;;2.30;72.71;100381.98;1816304;79;21194;-36
2020/12/02 04:04:05;;;;;;;14.25;8.85;;;;;;;2.31;72.59;100384.92;1816043;79;21186;-36
2020/12/02 04:06:33;;;;;;;12.68;9.88;;;;;;;2.27;72.67;100385.23;1815606;79;21296;-36
2020/12/02 04:09:02;;;;;;;13.10;9.33;;;;;;;2.24;72.66;100383.09;1815582;79;21185;-36
2020/12/02 04:11:31;;;;;;;11.03;8.00;;;;;;;2.19;72.73;100386.07;1815729;79;21392;-36
2020/12/02 04:13:59;;;;;;;10.72;8.05;;;;;;;2.22;72.76;100390.62;1815563;79;21420;-36
2020/12/02 04:16:27;;;;;;;10.60;7.80;;;;;;;2.25;72.58;100392.72;1815550;79;21015;-36
2020/12/02 04:18:55;;;;;;;13.03;9.43;;;;;;;2.21;72.45;100393.83;1815509;79;21166;-36
2020/12/02 04:21:24;;;;;;;11.48;8.93;;;;;;;2.16;72.65;100396.00;1815592;79;21126;-36
2020/12/02 04:23:54;;;;;;;12.23;9.40;;;;;;;2.15;72.80;100390.39;1815521;79;21118;-36
2020/12/02 04:26:23;;;;;;;8.97;6.67;;;;;;;2.13;73.02;100383.73;1815931;79;21201;-36
2020/12/02 04:28:51;;;;;;;10.48;7.95;;;;;;;2.13;73.02;100383.73;1815626;79;21768;-36
2020/12/02 04:31:20;;;;;;;10.43;8.30;;;;;;;2.20;72.77;100388.21;1815608;79;21126;-36
2020/12/02 04:33:48;;;;;;;11.88;8.83;;;;;;;2.27;72.55;100385.23;1815569;79;21154;-36
2020/12/02 04:36:17;;;;;;;12.85;9.65;;;;;;;2.26;72.52;100392.45;1815617;79;21142;-36
2020/12/02 04:38:46;;;;;;;13.15;9.30;;;;;;;2.26;72.52;100391.66;1815476;79;23523;-36
2020/12/02 04:41:15;;;;;;;16.35;9.58;;;;;;;2.23;72.56;100388.20;1815406;79;21170;-36
2020/12/02 04:43:46;;;;;;;10.75;7.03;;;;;;;2.18;72.67;100387.67;1815585;79;21139;-36
2020/12/02 04:46:31;;;;;;;11.97;8.70;;;;;;;2.15;72.77;100386.37;1815605;79;21094;-36
2020/12/02 04:49:22;;;;;;;14.28;8.63;;;;;;;2.23;72.77;100387.64;1815700;79;21609;-36
2020/12/02 04:51:58;;;;;;;15.23;9.35;;;;;;;2.24;72.69;100385.77;1815428;79;21330;-36
2020/12/02 04:54:26;;;;;;;14.03;9.75;;;;;;;2.22;72.70;100383.39;1789254;79;21198;-36
2020/12/02 04:56:55;;;;;;;16.40;10.53;;;;;;;2.23;72.59;100384.97;1779257;80;20980;-36
2020/12/02 04:59:42;;;;;;;14.80;10.25;;;;;;;2.16;72.61;100379.95;1779221;80;21206;-36
2020/12/02 05:02:26;;;;;;;15.53;10.38;;;;;;;2.10;72.47;100373.57;1779297;80;21135;-36
2020/12/02 05:04:59;;;;;;;17.02;10.78;;;;;;;2.14;72.24;100382.09;1779187;80;21379;-36
2020/12/02 05:07:29;;;;;;;19.40;12.45;;;;;;;2.09;72.42;100383.47;1779260;80;21039;-36
2020/12/02 05:10:09;;;;;;;17.55;11.68;;;;;;;2.03;72.56;100384.57;1779447;80;21161;-36
2020/12/02 05:12:42;;;;;;;17.45;11.50;;;;;;;2.02;72.91;100389.68;1779430;80;21139;-36
2020/12/02 05:15:24;;;;;;;17.73;11.55;;;;;;;2.00;72.77;100392.36;1779384;80;21554;-36
2020/12/02 05:18:21;;;;;;;19.60;12.85;;;;;;;1.99;73.00;100392.09;1779258;80;21364;-36
2020/12/02 05:21:20;;;;;;;20.55;13.08;;;;;;;2.04;72.87;100397.41;1779248;80;21153;-36
2020/12/02 05:24:04;;;;;;;21.47;14.13;;;;;;;1.93;73.03;100398.03;1779584;80;20996;-36
2020/12/02 05:26:36;;;;;;;21.33;14.03;;;;;;;1.87;73.30;100395.12;1779326;80;21242;-36
2020/12/02 05:29:47;;;;;;;18.55;12.60;;;;;;;1.81;73.31;100392.74;1779307;80;21102;-36
2020/12/02 05:32:20;;;;;;;21.17;13.48;;;;;;;1.81;73.12;100392.20;1779246;80;21366;-36
2020/12/02 05:34:48;;;;;;;20.62;13.48;;;;;;;1.82;72.92;100391.14;1779146;80;21174;-36
2020/12/02 05:37:41;;;;;;;23.70;14.33;;;;;;;1.82;72.99;100398.36;1779252;80;20973;-36
2020/12/02 05:40:15;;;;;;;24.92;14.85;;;;;;;1.80;73.06;100399.96;1779270;80;21147;-35
2020/12/02 05:42:57;;;;;;;22.67;14.43;;;;;;;1.72;73.03;100399.21;1724843;80;21158;-36
2020/12/02 05:45:40;;;;;;;22.07;13.80;;;;;;;1.68;72.92;100402.18;1779321;80;21262;-36
2020/12/02 05:48:25;;;;;;;23.35;14.98;;;;;;;1.70;72.88;100400.01;1779138;80;21598;-36
2020/12/02 05:50:55;;;;;;;23.95;15.25;;;;;;;1.71;72.92;100405.09;1779205;80;21399;-36
2020/12/02 05:53:34;;;;;;;25.12;15.48;;;;;;;1.69;72.97;100401.88;1779150;80;21641;-36
2020/12/02 05:56:04;;;;;;;27.37;15.75;;;;;;;1.65;72.91;100400.03;1779010;80;21146;-36
2020/12/02 05:58:32;;;;;;;26.55;16.30;;;;;;;1.63;72.93;100407.55;1747233;80;21293;-36
2020/12/02 06:01:01;;;;;;;26.73;17.00;;;;;;;1.68;72.90;100410.20;1779137;80;21182;-36
2020/12/02 06:03:33;;;;;;;28.75;17.30;;;;;;;1.68;73.05;100414.20;1779257;80;21012;-35
2020/12/02 06:06:03;;;;;;;29.70;17.48;;;;;;;1.69;73.13;100415.25;1779134;80;21134;-36
2020/12/02 06:08:38;;;;;;;27.60;17.32;;;;;;;1.65;72.89;100414.20;1779417;80;21700;-36
2020/12/02 06:11:22;;;;;;;25.97;16.37;;;;;;;1.63;73.07;100414.23;1779205;80;21327;-36
2020/12/02 06:14:02;;;;;;;28.05;16.25;;;;;;;1.65;72.72;100412.06;1779197;80;21154;-36
2020/12/02 06:16:45;;;;;;;26.57;17.95;;;;;;;1.63;72.79;100413.69;1779371;80;20992;-36
2020/12/02 06:19:30;;;;;;;30.57;18.07;;;;;;;1.57;72.72;100413.45;1779238;80;21138;-35
2020/12/02 06:22:00;;;;;;;26.02;15.72;;;;;;;1.51;72.81;100413.20;1774034;80;21143;-36
2020/12/02 06:24:44;;;;;;;;;;;;;;;1.50;72.79;100418.84;1781856;80;22332;-36
2020/12/02 06:27:32;;;;;;;31.37;16.35;;;;;;;1.49;72.79;100421.23;1779303;80;20179;-36
2020/12/02 06:30:16;;;;;;;29.12;17.42;;;;;;;1.30;73.34;100421.84;1779281;80;20988;-36
2020/12/02 06:33:05;;;;;;;28.23;17.55;;;;;;;1.30;73.53;100416.50;1779314;80;20985;-36
2020/12/02 06:35:34;;;;;;;31.45;17.42;;;;;;;1.36;73.55;100417.80;1758028;80;21173;-36
2020/12/02 06:38:26;;;;;;;28.98;17.95;;;;;;;1.43;73.40;100429.00;1738953;81;21278;-36
2020/12/02 06:41:03;;;;;;;30.57;17.45;;;;;;;1.45;73.40;100422.86;1739218;81;21667;-36
2020/12/02 06:43:36;;;;;;;31.52;18.40;;;;;;;1.46;73.46;100419.90;1739123;82;21050;-35
2020/12/02 06:46:05;;;;;;;30.15;17.27;;;;;;;1.48;73.40;100427.12;1736544;82;21067;-35
2020/12/02 06:48:39;;;;;;;33.28;18.73;;;;;;;1.52;73.35;100427.36;1739222;82;21584;-36
2020/12/02 06:51:10;;;;;;;33.18;18.65;;;;;;;1.62;73.15;100428.66;1739152;82;22061;-36
2020/12/02 06:53:39;;;;;;;32.75;18.48;;;;;;;1.61;73.09;100432.40;1743562;79;21166;-36
2020/12/02 06:56:11;;;;;;;34.15;19.98;;;;;;;1.57;73.04;100427.34;1797025;79;21021;-36
2020/12/02 06:58:39;;;;;;;32.03;18.20;;;;;;;1.55;73.00;100430.84;1742755;79;21282;-36
2020/12/02 07:01:07;;;;;;;26.42;17.55;;;;;;;1.51;73.14;100431.91;1797051;79;21183;-36
2020/12/02 07:03:44;;;;;;;24.27;16.65;;;;;;;1.56;73.18;100428.41;1766406;79;21290;-36
2020/12/02 07:06:23;;;;;;;26.55;17.50;;;;;;;1.62;73.05;100430.00;1796838;79;21032;-36
2020/12/02 07:09:12;;;;;;;21.10;13.20;;;;;;;1.64;72.92;100435.88;1797172;79;21071;-36
2020/12/02 07:11:47;;;;;;;26.90;16.42;;;;;;;1.59;72.96;100434.03;1797067;79;21032;-36
2020/12/02 07:14:38;;;;;;;27.75;15.63;;;;;;;1.60;72.93;100431.59;1795488;79;21155;-36
2020/12/02 07:17:10;;;;;;;25.95;14.43;;;;;;;1.69;72.88;100430.52;1796975;79;21364;-36
2020/12/02 07:19:45;;;;;;;30.82;18.25;;;;;;;1.67;72.87;100433.98;1797098;79;21016;-36
2020/12/02 07:22:17;;;;;;;28.80;17.23;;;;;;;1.65;73.00;100436.12;1796926;79;21136;-36
2020/12/02 07:24:49;;;;;;;25.57;15.98;;;;;;;1.60;72.94;100435.61;1797070;79;21115;-36
2020/12/02 07:27:19;;;;;;;24.25;14.10;;;;;;;1.55;73.19;100434.85;1796963;79;21581;-36
2020/12/02 07:30:01;;;;;;;26.12;15.88;;;;;;;1.56;73.16;100435.89;1796981;79;21349;-36
2020/12/02 07:32:29;;;;;;;26.33;15.55;;;;;;;1.54;73.14;100430.58;1797123;79;21187;-37
2020/12/02 07:35:03;;;;;;;28.92;16.02;;;;;;;1.46;73.42;100429.25;1801175;79;21433;-36
2020/12/02 07:37:32;;;;;;;27.13;16.15;;;;;;;1.12;73.63;100382.87;1815458;78;20996;-36
2020/12/02 07:40:01;;;;;;;22.27;14.60;;;;;;;1.51;73.85;100439.92;1815498;79;21185;-36
2020/12/02 07:42:39;;;;;;;25.68;15.45;;;;;;;1.66;73.52;100436.39;1807759;78;22257;-36
2020/12/02 07:45:18;;;;;;;19.42;13.60;;;;;;;1.68;73.00;100434.25;1783369;80;21116;-36
2020/12/02 07:47:53;;;;;;;23.10;13.53;;;;;;;1.60;72.88;100440.15;1783694;80;21107;-36
2020/12/02 07:50:28;;;;;;;23.25;12.80;;;;;;;1.50;72.84;100441.55;1783344;80;21022;-36
2020/12/02 07:53:08;;;;;;;18.50;12.07;;;;;;;1.48;72.87;100439.14;1783401;80;21094;-37
2020/12/02 07:55:46;;;;;;;21.50;13.28;;;;;;;1.52;72.74;100436.71;1785810;80;21302;-36
2020/12/02 07:58:22;;;;;;;24.92;14.50;;;;;;;1.44;72.81;100434.62;1786440;80;21038;-36
2020/12/02 08:00:50;;;;;;;23.00;14.25;;;;;;;1.36;72.95;100436.49;1786240;80;21204;-36
2020/12/02 08:03:29;;;;;;;21.60;12.43;;;;;;;1.35;73.17;100436.25;1786487;80;21006;-36
2020/12/02 08:06:08;;;;;;;21.87;13.03;;;;;;;1.47;73.12;100430.05;1786391;80;21097;-36
2020/12/02 08:08:35;;;;;;;25.95;12.78;;;;;;;1.48;73.34;100431.66;1768444;80;21380;-36
2020/12/02 08:11:16;;;;;;;19.85;11.93;;;;;;;1.47;73.43;100431.39;1786352;80;21034;-36
2020/12/02 08:13:53;;;;;;;21.93;12.30;;;;;;;1.49;73.45;100436.73;1786493;80;20987;-36
2020/12/02 08:16:32;;;;;;;21.68;12.53;;;;;;;1.57;73.41;100430.81;1786629;80;21148;-36
2020/12/02 08:19:03;;;;;;;25.95;14.43;;;;;;;1.63;73.16;100425.72;1784918;80;21156;-37
2020/12/02 08:21:34;;;;;;;23.62;13.43;;;;;;;1.61;73.05;100431.86;1786757;80;22376;-36
2020/12/02 08:24:36;;;;;;;20.90;12.50;;;;;;;1.59;73.03;100429.22;1786513;80;21394;-37
2020/12/02 08:27:06;;;;;;;21.73;13.18;;;;;;;1.60;73.18;100437.47;1786319;80;21184;-36
2020/12/02 08:29:36;;;;;;;21.82;12.30;;;;;;;1.73;73.27;100423.00;1781678;80;21137;-36
2020/12/02 08:32:27;;;;;;;16.17;11.95;;;;;;;1.83;73.05;100422.16;1755913;80;21157;-36
2020/12/02 08:34:57;;;;;;;24.55;12.95;;;;;;;1.85;72.74;100422.66;1785351;80;21190;-37
2020/12/02 08:37:38;;;;;;;18.05;12.03;;;;;;;1.85;72.43;100424.53;1744197;82;21149;-37
2020/12/02 08:40:27;;;;;;;18.32;11.78;;;;;;;1.81;72.47;100424.29;1721238;83;21137;-37
2020/12/02 08:43:25;;;;;;;17.70;11.33;;;;;;;1.84;72.54;100421.05;1714145;83;21180;-37
2020/12/02 08:46:02;;;;;;;19.33;12.30;;;;;;;1.89;72.06;100417.58;1781158;80;21120;-37
2020/12/02 08:48:30;;;;;;;20.75;13.43;;;;;;;1.82;72.31;100415.73;1781555;80;21202;-37
2020/12/02 08:50:58;;;;;;;20.80;11.97;;;;;;;1.80;72.18;100417.34;1744153;82;21136;-37
2020/12/02 08:53:30;;;;;;;19.77;11.75;;;;;;;1.78;72.22;100410.15;1721118;83;21672;-37
2020/12/02 08:55:58;;;;;;;22.67;13.00;;;;;;;1.82;71.95;100413.86;1710138;83;21158;-37
2020/12/02 08:58:29;;;;;;;19.73;12.93;;;;;;;1.88;71.89;100410.63;1738160;82;21187;-37
2020/12/02 09:00:57;;;;;;;19.15;11.40;;;;;;;1.84;72.05;100410.36;1738270;82;22004;-38
2020/12/02 09:03:25;;;;;;;17.98;10.82;;;;;;;1.81;71.75;100412.26;1738138;82;21201;-37
2020/12/02 09:05:54;;;;;;;16.23;10.45;;;;;;;1.74;71.80;100409.11;1738084;82;21163;-37
2020/12/02 09:08:23;;;;;;;15.73;10.50;;;;;;;1.75;71.88;100418.70;1738264;82;21135;-37
2020/12/02 09:10:52;;;;;;;19.40;11.95;;;;;;;1.78;71.90;100412.82;1738097;82;21210;-37
2020/12/02 09:13:20;;;;;;;16.95;11.28;;;;;;;1.76;71.98;100412.28;1738067;82;21215;-37
2020/12/02 09:15:50;;;;;;;14.50;9.90;;;;;;;1.74;72.25;100412.55;1703278;84;21648;-37
2020/12/02 09:18:18;;;;;;;14.75;9.53;;;;;;;1.80;72.19;100405.30;1711838;83;21132;-37
2020/12/02 09:20:46;;;;;;;15.55;8.95;;;;;;;1.88;71.93;100399.94;1738064;82;21143;-36
2020/12/02 09:23:15;;;;;;;13.03;8.73;;;;;;;1.96;71.54;100400.68;1738010;82;21135;-37
2020/12/02 09:25:44;;;;;;;12.65;9.58;;;;;;;1.93;71.61;100398.03;1707135;84;21217;-37
2020/12/02 09:28:12;;;;;;;13.62;9.63;;;;;;;1.97;71.49;100395.06;1737987;82;21151;-37
2020/12/02 09:30:41;;;;;;;12.45;8.93;;;;;;;1.99;71.50;100395.56;1738178;82;21009;-37
2020/12/02 09:33:09;;;;;;;14.58;10.23;;;;;;;2.05;71.43;100398.48;1738059;82;21035;-37
2020/12/02 09:35:38;;;;;;;14.65;9.88;;;;;;;2.21;71.26;100393.03;1754175;81;21152;-37
2020/12/02 09:38:09;;;;;;;13.00;9.28;;;;;;;2.28;70.98;100392.95;1768014;81;21195;-37
2020/12/02 09:40:39;;;;;;;14.18;8.80;;;;;;;2.31;70.56;100394.30;1767797;81;21147;-37
2020/12/02 09:43:17;;;;;;;12.15;8.55;;;;;;;2.36;70.23;100395.59;1734107;82;21081;-37
2020/12/02 09:46:15;;;;;;;14.10;8.63;;;;;;;2.33;70.24;100390.78;1768605;81;21399;-37
2020/12/02 09:48:44;;;;;;;12.45;8.55;;;;;;;2.20;70.07;100372.16;1768645;81;21148;-37
2020/12/02 09:51:20;;;;;;;13.83;9.13;;;;;;;2.28;70.13;100390.81;1768431;81;21453;-37
2020/12/02 09:53:49;;;;;;;13.05;9.38;;;;;;;2.23;70.35;100387.64;1734343;82;21030;-37
2020/12/02 09:56:19;;;;;;;12.33;8.43;;;;;;;2.23;70.52;100393.00;1737395;80;21047;-36
2020/12/02 09:58:48;;;;;;;12.13;8.75;;;;;;;2.24;70.49;100394.59;1725513;83;21182;-37
2020/12/02 10:01:44;;;;;;;12.28;8.58;;;;;;;2.27;70.29;100389.25;1725484;83;21154;-37
2020/12/02 10:04:41;;;;;;;13.80;8.35;;;;;;;2.29;69.99;100390.55;1725696;81;21199;-37
2020/12/02 10:08:04;;;;;;;13.43;9.33;;;;;;;2.25;69.98;100390.05;1725562;82;21143;-37
2020/12/02 10:10:54;;;;;;;11.33;7.28;;;;;;;2.11;70.11;100381.86;1725547;83;21163;-37
2020/12/02 10:13:52;;;;;;;12.03;8.23;;;;;;;2.09;70.40;100390.69;1701488;83;21194;-37
2020/12/02 10:16:36;;;;;;;11.95;8.65;;;;;;;2.13;70.41;100389.86;1725504;83;21178;-37
2020/12/02 10:19:31;;;;;;;13.83;10.35;;;;;;;2.09;70.66;100396.04;1725490;83;21142;-37
2020/12/02 10:22:30;;;;;;;14.15;9.90;;;;;;;2.06;70.81;100390.72;1715225;83;21192;-37
2020/12/02 10:25:19;;;;;;;12.18;7.45;;;;;;;2.06;70.96;100390.72;1725732;83;21131;-37
2020/12/02 10:27:59;;;;;;;10.00;7.42;;;;;;;2.17;70.67;100389.58;1725666;83;21174;-37
2020/12/02 10:30:30;;;;;;;13.03;8.33;;;;;;;2.25;70.63;100388.17;1725736;83;21151;-37
2020/12/02 10:33:43;;;;;;;13.22;8.48;;;;;;;2.24;70.60;100385.77;1725482;83;21203;-37
2020/12/02 10:36:12;;;;;;;14.47;9.08;;;;;;;2.19;70.78;100384.73;1725421;83;21187;-37
2020/12/02 10:38:45;;;;;;;8.53;6.35;;;;;;;2.16;70.94;100387.17;1769921;80;21111;-37
2020/12/02 10:42:12;;;;;;;10.70;8.60;;;;;;;2.19;70.78;100386.61;1769531;80;21182;-37
2020/12/02 10:45:14;;;;;;;13.28;9.25;;;;;;;2.25;70.59;100388.17;1769766;81;21099;-37
2020/12/02 10:48:17;;;;;;;14.40;9.75;;;;;;;2.15;70.86;100382.89;1766844;81;21513;-37
2020/12/02 10:50:46;;;;;;;12.65;9.08;;;;;;;2.11;71.05;100377.31;1769660;80;21139;-37
2020/12/02 10:53:18;;;;;;;13.45;9.60;;;;;;;2.06;70.93;100372.53;1769656;80;21134;-37
2020/12/02 10:55:48;;;;;;;13.13;9.38;;;;;;;2.08;70.91;100381.86;1788341;78;21039;-37
2020/12/02 10:58:22;;;;;;;15.63;10.20;;;;;;;2.09;71.09;100379.45;1782785;80;21150;-37
2020/12/02 11:01:03;;;;;;;18.25;11.73;;;;;;;2.09;71.17;100379.45;1755272;81;21632;-37
2020/12/02 11:03:36;;;;;;;;;;;;;;;2.07;71.26;100380.28;1752791;81;21174;-38
2020/12/02 11:06:12;;;;;;;12.60;8.83;;;;;;;2.12;71.30;100379.45;1755315;81;20275;-38
2020/12/02 11:09:11;;;;;;;15.75;8.60;;;;;;;2.16;71.29;100379.95;1755263;81;21158;-37
2020/12/02 11:12:06;;;;;;;12.80;9.00;;;;;;;2.18;71.28;100378.31;1755319;81;21079;-37
2020/12/02 11:14:49;;;;;;;13.13;9.58;;;;;;;2.14;71.60;100374.61;1782894;80;23514;-37
2020/12/02 11:18:02;;;;;;;15.48;10.08;;;;;;;2.11;71.55;100373.30;1777505;80;21157;-37
2020/12/02 11:21:07;;;;;;;14.90;10.18;;;;;;;2.12;71.63;100372.77;1783057;80;21043;-37
2020/12/02 11:24:03;;;;;;;11.73;8.60;;;;;;;2.18;71.47;100371.63;1783004;80;21122;-37
2020/12/02 11:26:36;;;;;;;13.50;9.48;;;;;;;2.20;71.74;100369.48;1783148;80;21190;-37
2020/12/02 11:29:08;;;;;;;13.30;9.13;;;;;;;2.22;71.65;100367.34;1782966;80;21700;-37
2020/12/02 11:32:14;;;;;;;13.68;10.00;;;;;;;2.22;71.46;100369.22;1782919;80;21035;-37
2020/12/02 11:35:09;;;;;;;11.38;9.00;;;;;;;2.21;71.27;100364.94;1707362;80;21201;-37
2020/12/02 11:37:59;;;;;;;15.30;10.38;;;;;;;2.20;71.05;100368.15;1782849;80;21158;-38
2020/12/02 11:41:00;;;;;;;14.65;9.98;;;;;;;2.24;70.93;100371.05;1783044;80;21117;-37
2020/12/02 11:43:42;;;;;;;13.95;10.10;;;;;;;2.17;71.20;100369.52;1783017;80;21199;-37
2020/12/02 11:46:13;;;;;;;12.70;9.80;;;;;;;2.13;71.39;100369.79;1782912;80;21198;-37
2020/12/02 11:49:02;;;;;;;14.75;10.40;;;;;;;2.09;71.60;100366.08;1783129;80;21169;-37
2020/12/02 11:51:51;;;;;;;14.15;9.98;;;;;;;2.10;71.73;100364.21;1782921;80;21167;-37
2020/12/02 11:54:22;;;;;;;15.00;10.78;;;;;;;2.16;71.58;100363.91;1752338;80;21199;-37
2020/12/02 11:56:54;;;;;;;16.65;11.10;;;;;;;2.15;71.82;100364.17;1755832;80;22262;-37
2020/12/02 11:59:32;;;;;;;14.47;10.98;;;;;;;2.14;71.88;100360.70;1742720;82;21622;-37
2020/12/02 12:02:42;;;;;;;14.05;10.45;;;;;;;2.16;72.01;100368.45;1742666;82;21171;-37
2020/12/02 12:05:21;;;;;;;13.08;9.93;;;;;;;2.18;71.86;100364.41;1742715;82;21131;-37
2020/12/02 12:08:18;;;;;;;14.18;10.08;;;;;;;2.15;71.64;100364.98;1742674;82;21143;-37